Tiempo atmosférico en la estación meteorológica de Cedrillas, Teruel (1380 m.)



Fecha
DESCASC
Temp. máxima en grados centígrados (hora)
DESCASC
Temp. mínima en grados centígrados (hora)
DESCASC
Temp. media en grados centígrados
DESCASC
Racha de viento máxima en m/sg (hora)
DESCASC
Velocidad máxima media en intervalos de 10 minutos(hora)
DESCASC
Precipitaciones diarias en mm
DESCASC
Precipitaciones de 00:00 a 06:00 en mm
DESCASC
Precipitaciones de 06:00 a 12:00 en mm
DESCASC
Precipitaciones de 12:00 a 18:00 en mm
DESCASC
Precipitaciones de 18:00 a 24:00 en mm
DESCASC
22-04-2019 9.1 (17:50) 3.9 (06:20) 6.5 8.06 (00:20) 5.56 (02:20) 0.4 0 0.2 0.2 0
21-04-2019 5.3 (14:10) 1.4 (02:40) 3.4 10.56 (15:20) 7.22 (14:10) 4 4 0 0 0
20-04-2019 8.8 (14:00) 1.8 (23:59) 5.3 21.67 (05:00) 15.56 (05:30) 2 0 0 1.6 0.4
19-04-2019 9.5 (12:10) 3.9 (00:00) 6.7 23.89 (13:30) 15.83 (13:30) 39.6 36 3.6 0 0
18-04-2019 10.4 (11:40) 2.8 (00:00) 6.6 17.5 (19:40) 11.94 (18:40) 34 0 0 0 34
17-04-2019 15.5 (14:50) 3.7 (00:00) 9.6 13.06 (15:40) 9.72 (18:30) 0 0 0 0 0
16-04-2019 16.3 (16:00) 3.8 (00:00) 10 11.11 (16:10) 7.5 (02:40) 0.8 0.6 0 0.2 0
15-04-2019 15.1 (14:10) 4.1 (00:00) 9.6 12.5 (14:10) 8.61 (14:30) 0.2 0 0 0 0.2
14-04-2019 18.6 (18:00) 0.5 (00:00) 9.6 12.5 (09:20) 9.72 (09:20) 0 0 0 0 0
13-04-2019 15.1 (18:10) -3.1 (-00:0) 6 7.22 (16:00) 4.44 (18:40) 0 0 0 0 0
12-04-2019 11 (17:20) 0.9 (00:00) 5.9 9.17 (00:50) 5.83 (02:40) 0 0 0 0 0
11-04-2019 8.7 (18:10) 1 (00:00) 4.8 13.06 (14:30) 9.17 (13:50) 0 0 0 0 0
10-04-2019 7.7 (15:40) 1.1 (00:00) 4.4 14.17 (10:00) 9.72 (09:50) 1.6 0.2 0 0 1.4
09-04-2019 7.6 (13:40) 0.9 (00:00) 4.2 12.5 (16:40) 7.78 (16:40) 4.4 0.4 0 0.8 3.2
08-04-2019 11.4 (17:00) 1 (00:00) 6.2 11.67 (14:40) 7.78 (18:20) 1.8 1.8 0 0 0
07-04-2019 7.5 (18:00) -0.7 (-00:0) 3.4 13.89 (10:50) 9.44 (10:20) 1.8 0 1.6 0 0.2
06-04-2019 5.2 (15:30) -2.1 (-00:0) 1.5 15 (16:10) 9.72 (16:10) 0.6 0 0.2 0.4 0
05-04-2019 6.5 (13:40) -0.1 (00:00) 3.2 11.94 (15:40) 8.33 (15:30) 1.8 0 0 0.6 1.2
04-04-2019 9.8 (18:10) -2.7 (-00:0) 3.6 11.94 (18:10) 7.5 (07:40) 0 0 0 0 0
03-04-2019 10.1 (15:40) -1.1 (23:59) 4.5 10.83 (15:20) 7.22 (15:40) 0 0 0 0 0
02-04-2019 12.7 (15:30) 2.7 (00:00) 7.7 13.33 (19:50) 8.89 (19:50) 0.2 0.2 0 0 0
01-04-2019 9.2 (16:20) 4 (00:00) 6.6 7.5 (16:10) 5.28 (16:10) 1.8 0.6 1 0.2 0
31-03-2019 5 (12:30) 0.5 (00:00) 2.8 7.5 (08:00) 5.83 (07:50) 15.4 0 1 9.6 4.8
30-03-2019 13.1 (14:50) -3.8 (-00:0) 4.7 9.72 (18:30) 6.67 (17:50) 0 0 0 0 0
29-03-2019 11.2 (14:40) -4.3 (-00:0) 3.4 11.39 (12:20) 6.94 (10:20) 0 0 0 0 0
28-03-2019 13.9 (14:40) -4.9 (-00:0) 4.5 8.89 (18:20) 6.39 (18:20) 0 0 0 0 0
27-03-2019 12.9 (14:50) -5.5 (-00:0) 3.7 9.72 (14:40) 6.11 (15:30) 0 0 0 0 0
26-03-2019 14.7 (14:20) -3.9 (-00:0) 5.4 13.06 (14:30) 8.33 (14:40) 0 0 0 0 0
25-03-2019 15.6 (16:10) -3 (-00:0) 6.3 7.78 (14:40) 4.72 (18:10) 0 0 0 0 0

Gráficas

Temp. máximas Temp. mínimas Temp. medias Precipitaciones Rachas de viento máximas Velocidades máximas media en intervalos de 10 minutos

Datos horarios

Fecha y hora oficial Temperatura (ºC) Velocidad del viento (km/h) Dirección del viento Racha (km/h) Dirección de racha Precipitación (mm) Presión (hPa) Tendencia (hPa) Humedad (%)
2019-04-23 23:00:00 2.8 18 Sur 29 Sudoeste 0 -- -- 82
2019-04-23 22:00:00 3.5 20 Sudoeste 44 Sudoeste 0 -- -- 72
2019-04-23 21:00:00 4.5 25 Sudoeste 48 Sudoeste 0 -- -- 74
2019-04-23 20:00:00 5.5 27 Sudoeste 50 Sudoeste 0.2 -- -- 76
2019-04-23 19:00:00 7 26 Sudoeste 47 Sudoeste 0 -- -- 72
2019-04-23 18:00:00 7.2 17 Sur 25 Sur 0 -- -- 74
2019-04-23 17:00:00 6.5 13 Sur 41 Sudoeste 0 -- -- 78
2019-04-23 16:00:00 7.8 28 Sudoeste 44 Sudoeste 0 -- -- 72
2019-04-23 15:00:00 7.2 24 Sudoeste 43 Sudoeste 0 -- -- 86
2019-04-23 14:00:00 8.3 18 Sur 32 Sudoeste 0 -- -- 76
2019-04-23 13:00:00 9.1 21 Sur 31 Sur 0 -- -- 74
2019-04-23 12:00:00 7.5 14 Sur 23 Sur 0 -- -- 91
2019-04-23 11:00:00 7.5 13 Sur 18 Sudoeste 0 -- -- 88
2019-04-23 10:00:00 6.9 11 Sur 21 Sur 0 -- -- 89
2019-04-23 09:00:00 6.3 11 Sur 20 Sur 0 -- -- 92
2019-04-23 08:00:00 5.6 9 Sur 15 Sur 0 -- -- 93
2019-04-23 07:00:00 4.9 7 Sudeste 13 Sur 0 -- -- 93
2019-04-23 06:00:00 5.2 8 Sur 20 Sur 0 -- -- 95
2019-04-23 05:00:00 5.7 13 Sur 23 Sur 0 -- -- 94
2019-04-23 04:00:00 5.3 10 Sur 15 Sur 0 -- -- 94
2019-04-23 03:00:00 5.4 9 Sur 14 Sur 0 -- -- 94
2019-04-23 02:00:00 5.8 10 Sur 14 Sudoeste 0 -- -- 95
2019-04-23 01:00:00 6.2 10 Sur 17 Sur 0 -- -- 95
2019-04-23 00:00:00 6.6 6 Sur 15 Sur 0 -- -- 94
2019-04-22 23:00:00 6.7 11 Sur 16 Sur 0 -- -- 93
2019-04-22 22:00:00 7.1 8 Sudoeste 10 Sudoeste 0 -- -- 92
2019-04-22 21:00:00 7.3 2 Sudoeste 7 Nordeste 0 -- -- 89
2019-04-22 20:00:00 7.7 5 Norte 10 Norte 0 -- -- 87
2019-04-22 19:00:00 8.1 9 Norte 13 Nordeste 0 -- -- 84
2019-04-22 18:00:00 9.1 8 Nordeste 12 Nordeste 0 -- -- 81
2019-04-22 17:00:00 8.6 5 Norte 11 Nordeste 0 -- -- 82
2019-04-22 16:00:00 7.2 8 Noroeste 14 Norte 0 -- -- 90
2019-04-22 15:00:00 5.8 11 Norte 18 Norte 0 -- -- 94
2019-04-22 14:00:00 5.9 11 Norte 20 Norte 0.2 -- -- 93
2019-04-22 13:00:00 5.1 14 Norte 22 Norte 0 -- -- 93
2019-04-22 12:00:00 4.4 14 Noroeste 23 Norte 0.2 -- -- 94
2019-04-22 11:00:00 4.6 12 Norte 24 Norte 0 -- -- 92
2019-04-22 10:00:00 4.5 14 Norte 21 Norte 0 -- -- 91
2019-04-22 09:00:00 4.2 10 Norte 19 Norte 0 -- -- 96
2019-04-22 08:00:00 4 14 Noroeste 20 Norte 0 -- -- 96
2019-04-22 07:00:00 4 9 Noroeste 17 Oeste 0 -- -- 97
2019-04-22 06:00:00 4 11 Noroeste 17 Noroeste 0 -- -- 97
2019-04-22 05:00:00 4 11 Norte 21 Noroeste 0 -- -- 98
2019-04-22 04:00:00 4.1 10 Norte 21 Norte 0 -- -- 99
2019-04-22 03:00:00 4.2 10 Norte 28 Norte 0 -- -- 99
2019-04-22 02:00:00 4.3 16 Norte 29 Nordeste 0 -- -- 97
2019-04-22 01:00:00 4.6 18 Norte 29 Norte 0 -- -- 95
2019-04-22 00:00:00 4.6 18 Norte 33 Norte 0 -- -- 95
2019-04-21 23:00:00 4.4 21 Norte 30 Norte 0 -- -- 97
2019-04-21 22:00:00 4.4 18 Norte 26 Norte 0 -- -- 96
2019-04-21 21:00:00 4.6 13 Norte 23 Nordeste 0 -- -- 93
2019-04-21 20:00:00 4.5 16 Norte 33 Norte 0 -- -- 94
2019-04-21 19:00:00 4.4 19 Norte 28 Norte 0 -- -- 96
2019-04-21 18:00:00 4.9 16 Nordeste 32 Nordeste 0 -- -- 92
2019-04-21 17:00:00 4.7 20 Norte 32 Norte 0 -- -- 91
2019-04-21 16:00:00 5 23 Nordeste 38 Nordeste 0 -- -- 90
2019-04-21 15:00:00 5.2 17 Nordeste 36 Nordeste 0 -- -- 85
2019-04-21 14:00:00 5.1 22 Nordeste 36 Norte 0 -- -- 85
2019-04-21 13:00:00 4.3 17 Nordeste 26 Nordeste 0 -- -- 91
2019-04-21 12:00:00 4.1 15 Norte 31 Nordeste 0 -- -- 92
2019-04-21 11:00:00 4.1 19 Nordeste 35 Este 0 -- -- 89
2019-04-21 10:00:00 3.7 13 Nordeste 24 Norte 0 -- -- 91
2019-04-21 09:00:00 3.1 13 Norte 23 Norte 0 -- -- 96
2019-04-21 08:00:00 3 16 Norte 27 Norte 0 -- -- 96
2019-04-21 07:00:00 2.6 15 Norte 34 Nordeste 0 -- -- 98
2019-04-21 06:00:00 2.4 23 Nordeste 33 Nordeste 0 -- -- 99
2019-04-21 05:00:00 2 19 Nordeste 28 Norte 0.2 -- -- 97
2019-04-21 04:00:00 1.6 20 Norte 28 Nordeste 0.2 -- -- 97
2019-04-21 03:00:00 1.5 15 Norte 24 Norte 1 -- -- 96
2019-04-21 02:00:00 1.6 10 Nordeste 18 Norte 1.8 -- -- 96
2019-04-21 01:00:00 1.9 8 Norte 18 Oeste 0.8 -- -- 96
2019-04-21 00:00:00 1.8 13 Noroeste 21 Noroeste 0 -- -- 95
2019-04-20 23:00:00 2.3 15 Norte 27 Nordeste 0 -- -- 94
2019-04-20 22:00:00 3.2 19 Nordeste 27 Nordeste 0 -- -- 89
2019-04-20 21:00:00 3.6 16 Nordeste 28 Nordeste 0 -- -- 88
2019-04-20 20:00:00 3.9 15 Nordeste 28 Nordeste 0 -- -- 89
2019-04-20 19:00:00 3.6 9 Norte 26 Nordeste 0.4 -- -- 91
2019-04-20 18:00:00 3.7 18 Nordeste 55 Este 1.6 -- -- 89
2019-04-20 17:00:00 5.6 31 Nordeste 64 Este 0 -- -- 81
2019-04-20 16:00:00 7.1 40 Nordeste 58 Este 0 -- -- 67
2019-04-20 15:00:00 8.4 32 Nordeste 53 Nordeste 0 -- -- 62
2019-04-20 14:00:00 8.8 28 Nordeste 68 Nordeste 0 -- -- 58
2019-04-20 13:00:00 8.5 40 Nordeste 60 Este 0 -- -- 58
2019-04-20 12:00:00 7.9 33 Nordeste 49 Nordeste 0 -- -- 72
2019-04-20 11:00:00 7.4 37 Nordeste 66 Este 0 -- -- 75
2019-04-20 10:00:00 7.6 44 Nordeste 71 Nordeste 0 -- -- 77
2019-04-20 09:00:00 6.9 44 Nordeste 70 Nordeste 0 -- -- 76
2019-04-20 08:00:00 6.7 46 Nordeste 69 Este 0 -- -- 79
2019-04-20 07:00:00 6.3 48 Nordeste 68 Este 0 -- -- 79
2019-04-20 06:00:00 6.8 49 Nordeste 77 Este 0 -- -- 78
2019-04-20 05:00:00 6.7 51 Nordeste 78 Nordeste 0 -- -- 78
2019-04-20 04:00:00 6.7 44 Este 62 Nordeste 0 -- -- 78
2019-04-20 03:00:00 6.3 40 Este 58 Este 0 -- -- 78
2019-04-20 02:00:00 6.9 39 Este 53 Este 0 -- -- 75
2019-04-20 01:00:00 6.4 22 Este 66 Este 0 -- -- 78
2019-04-20 00:00:00 6.8 46 Este 75 Este 0 -- -- 76
2019-04-19 23:00:00 6.8 44 Este 69 Este 0 -- -- 78
2019-04-19 22:00:00 6.3 41 Este 69 Nordeste 0 -- -- 85
2019-04-19 21:00:00 6.8 42 Este 66 Este 0 -- -- 79
2019-04-19 20:00:00 7.3 44 Este 71 Este 0 -- -- 74
2019-04-19 19:00:00 7.7 40 Nordeste 72 Nordeste 0 -- -- 73
2019-04-19 18:00:00 8.7 38 Este 68 Este 0 -- -- 71
2019-04-19 17:00:00 8.4 38 Nordeste 66 Este 0 -- -- 83
2019-04-19 16:00:00 8 43 Este 77 Nordeste 0 -- -- 86
2019-04-19 15:00:00 7.8 46 Este 66 Nordeste 0 -- -- 90
2019-04-19 14:00:00 8.6 40 Este 86 Este 0 -- -- 89
2019-04-19 13:00:00 9.4 49 Este 76 Este 0 -- -- 85
2019-04-19 12:00:00 9.4 50 Este 73 Este 0 -- -- 85
2019-04-19 11:00:00 8.8 36 Este 51 Este 0 -- -- 90
2019-04-19 10:00:00 7.8 24 Este 41 Este 0.6 -- -- 93
2019-04-19 09:00:00 7.3 9 Sudeste 19 Sudeste 0 -- -- 92
2019-04-19 08:00:00 5.6 5 Oeste 10 Noroeste 0.2 -- -- 99
2019-04-19 07:00:00 5.4 4 Norte 13 Sudeste 2.8 -- -- 100
2019-04-19 06:00:00 5 4 Este 12 Este 4.4 -- -- 99
2019-04-19 05:00:00 5.3 10 Este 40 Sudeste 6.2 -- -- 95
2019-04-19 04:00:00 6 20 Sudeste 45 Sudeste 6 -- -- 94
2019-04-19 03:00:00 6.3 31 Este 47 Este 6.8 -- -- 91
2019-04-19 02:00:00 6 14 Este 23 Sudeste 5.2 -- -- 96
2019-04-19 01:00:00 4.7 8 Nordeste 14 Nordeste 7.4 -- -- 100
2019-04-19 00:00:00 3.9 3 Sur 13 Este 8 -- -- 100
2019-04-18 23:00:00 3.4 6 Este 23 Sudoeste 7.6 -- -- 99
2019-04-18 22:00:00 2.9 17 Sudoeste 35 Sudoeste 11 -- -- 97
2019-04-18 21:00:00 4.3 25 Sudoeste 52 Este 7.4 -- -- 94
2019-04-18 20:00:00 8.3 35 Este 63 Este 0 -- -- 83
2019-04-18 19:00:00 8.6 36 Este 63 Este 0 -- -- 80
2019-04-18 18:00:00 9 35 Este 58 Este 0 -- -- 80
2019-04-18 17:00:00 9 21 Sudeste 50 Sudeste 0 -- -- 75
2019-04-18 16:00:00 9.6 32 Sudeste 52 Sudeste 0 -- -- 72
2019-04-18 15:00:00 10 20 Sur 39 Este 0 -- -- 74
2019-04-18 14:00:00 8.9 17 Sur 41 Este 0 -- -- 78
2019-04-18 13:00:00 10.1 21 Sudeste 45 Sudeste 0 -- -- 65
2019-04-18 12:00:00 9.6 13 Sur 24 Sudeste 0 -- -- 68
2019-04-18 11:00:00 9.6 10 Sudeste 29 Este 0 -- -- 60
2019-04-18 10:00:00 8.4 12 Sudoeste 21 Sudoeste 0 -- -- 70
2019-04-18 09:00:00 7.7 5 Sudeste 22 Nordeste 0 -- -- 68
2019-04-18 08:00:00 5.7 8 Este 19 Sudeste 0 -- -- 79
2019-04-18 07:00:00 5.5 5 Oeste 13 Sur 0 -- -- 74
2019-04-18 06:00:00 5.6 9 Sur 19 Sur 0 -- -- 76
2019-04-18 05:00:00 5.7 13 Sur 21 Sur 0 -- -- 76
2019-04-18 04:00:00 4.8 3 Oeste 12 Sudoeste 0 -- -- 87
2019-04-18 03:00:00 5.7 11 Sur 28 Sur 0 -- -- 82
2019-04-18 02:00:00 5.3 21 Sur 31 Sur 0 -- -- 91
2019-04-18 01:00:00 5.4 19 Sur 31 Sur 0 -- -- 95
2019-04-18 00:00:00 6.3 25 Sur 37 Sur 0 -- -- 99
2019-04-17 23:00:00 7 23 Sur 34 Sur 0 -- -- 97
2019-04-17 22:00:00 7.7 22 Sur 36 Sur 0 -- -- 95
2019-04-17 21:00:00 8.2 25 Sur 42 Sur 0 -- -- 92
2019-04-17 20:00:00 9.6 26 Sur 43 Sur 0 -- -- 83
2019-04-17 19:00:00 11.7 28 Sur 46 Sur 0 -- -- 72
2019-04-17 18:00:00 13.3 30 Sur 41 Sudeste 0 -- -- 62
2019-04-17 17:00:00 13.8 32 Sur 45 Sur 0 -- -- 57
2019-04-17 16:00:00 15.1 29 Sur 47 Sur 0 -- -- 49
2019-04-17 15:00:00 15.1 28 Sur 42 Sur 0 -- -- 47
2019-04-17 14:00:00 14.5 28 Sur 45 Sudeste 0 -- -- 44
2019-04-17 13:00:00 13.8 30 Sudeste 44 Sudeste 0 -- -- 41
2019-04-17 12:00:00 12.8 30 Sur 42 Sudeste 0 -- -- 47
2019-04-17 11:00:00 11.8 26 Sur 37 Sudeste 0 -- -- 41
2019-04-17 10:00:00 8.6 23 Sur 32 Sur 0 -- -- 66
2019-04-17 09:00:00 6.9 18 Sur 27 Sur 0 -- -- 77
2019-04-17 08:00:00 5.3 12 Sur 18 Sur 0 -- -- 87
2019-04-17 07:00:00 4.1 14 Sur 19 Sur 0 -- -- 95
2019-04-17 06:00:00 3.7 15 Sur 23 Sur 0 -- -- 100
2019-04-17 05:00:00 4.2 20 Sur 26 Sur 0 -- -- 99
2019-04-17 04:00:00 4.8 17 Sudeste 31 Sur 0 -- -- 98
2019-04-17 03:00:00 5.8 17 Sudeste 32 Sur 0 -- -- 95
2019-04-17 02:00:00 6.2 20 Sur 35 Sudeste 0 -- -- 90
2019-04-17 01:00:00 6.4 24 Sudeste 39 Sur 0 -- -- 91
2019-04-17 00:00:00 6.9 19 Sudeste 34 Sudeste 0 -- -- 89
2019-04-16 23:00:00 7.4 22 Sudeste 34 Sur 0 -- -- 90
2019-04-16 22:00:00 7.9 24 Sur 36 Sur 0 -- -- 89
2019-04-16 21:00:00 8.2 26 Sur 36 Sudeste 0 -- -- 88
2019-04-16 20:00:00 9.6 22 Sudeste 39 Sur 0 -- -- 82
2019-04-16 19:00:00 11.7 24 Sudeste 35 Sudeste 0 -- -- 73
2019-04-16 18:00:00 14.1 21 Sudeste 38 Sur 0 -- -- 63
2019-04-16 17:00:00 15.1 27 Sur 40 Sur 0 -- -- 57
2019-04-16 16:00:00 16.3 13 Sur 27 Sudoeste 0 -- -- 29
2019-04-16 15:00:00 15.2 11 Sudoeste 23 Oeste 0 -- -- 35
2019-04-16 14:00:00 13.4 5 Noroeste 13 Norte 0.2 -- -- 47
2019-04-16 13:00:00 10.6 8 Norte 19 Noroeste 0 -- -- 63
2019-04-16 12:00:00 9.1 10 Norte 19 Norte 0 -- -- 70
2019-04-16 11:00:00 7 12 Nordeste 23 Nordeste 0 -- -- 80
2019-04-16 10:00:00 6.7 11 Norte 22 Norte 0 -- -- 83
2019-04-16 09:00:00 5.7 12 Norte 23 Noroeste 0 -- -- 89
2019-04-16 08:00:00 4.6 13 Norte 21 Norte 0 -- -- 95
2019-04-16 07:00:00 4.1 7 Norte 13 Norte 0 -- -- 92
2019-04-16 06:00:00 4.4 6 Nordeste 19 Norte 0 -- -- 90
2019-04-16 05:00:00 5.5 9 Norte 29 Noroeste 0 -- -- 91
2019-04-16 04:00:00 6.6 6 Norte 28 Noroeste 0 -- -- 90
2019-04-16 03:00:00 7 20 Noroeste 37 Noroeste 0 -- -- 89
2019-04-16 02:00:00 7.6 18 Noroeste 30 Noroeste 0.6 -- -- 90
2019-04-16 01:00:00 8.6 15 Oeste 30 Noroeste 0 -- -- 86
2019-04-16 00:00:00 7.9 9 Sudeste 15 Sur 0 -- -- 87
2019-04-15 23:00:00 7.7 9 Sudeste 27 Sur 0.2 -- -- 89
2019-04-15 22:00:00 7.9 22 Sur 30 Sur 0 -- -- 85
2019-04-15 21:00:00 9.1 15 Sur 31 Sur 0 -- -- 77
2019-04-15 20:00:00 12.3 19 Sur 30 Sur 0 -- -- 65
2019-04-15 19:00:00 13.3 18 Sudeste 40 Sur 0 -- -- 61
2019-04-15 18:00:00 14.9 25 Sur 43 Sur 0 -- -- 57
2019-04-15 17:00:00 13.6 22 Sur 40 Sudeste 0 -- -- 61
2019-04-15 16:00:00 12.8 23 Sur 40 Sudeste 0 -- -- 62
2019-04-15 15:00:00 13.8 26 Sur 45 Sur 0 -- -- 60
2019-04-15 14:00:00 14.7 28 Sur 40 Sur 0 -- -- 58
2019-04-15 13:00:00 14.2 28 Sudeste 40 Sudeste 0 -- -- 57
2019-04-15 12:00:00 13.5 24 Sur 36 Sur 0 -- -- 61
2019-04-15 11:00:00 12.6 19 Sur 33 Sur 0 -- -- 66
2019-04-15 10:00:00 11.5 21 Sur 30 Sur 0 -- -- 68
2019-04-15 09:00:00 11.1 12 Sur 21 Sur 0 -- -- 70
2019-04-15 08:00:00 6.9 9 Sur 12 Sur 0 -- -- 88
2019-04-15 07:00:00 4.2 3 Sudoeste 8 Este 0 -- -- 95
2019-04-15 06:00:00 5 0 Calma 5 Este 0 -- -- 93
2019-04-15 05:00:00 5.1 4 Nordeste 4 Nordeste 0 -- -- 92
2019-04-15 04:00:00 5.3 3 Nordeste 6 Este 0 -- -- 90
2019-04-15 03:00:00 5.5 0 Calma 7 Este 0 -- -- 90
2019-04-15 02:00:00 6.2 4 Este 13 Este 0 -- -- 86
2019-04-15 01:00:00 7.4 6 Este 9 Sudeste 0 -- -- 82
2019-04-15 00:00:00 9.1 0 Calma 12 Sudeste 0 -- -- 77
2019-04-14 23:00:00 9.8 2 Norte 9 Este 0 -- -- 74
2019-04-14 22:00:00 11.3 3 Este 13 Norte 0 -- -- 69
2019-04-14 21:00:00 13.7 6 Norte 22 Noroeste 0 -- -- 63
2019-04-14 20:00:00 16 15 Noroeste 27 Norte 0 -- -- 54
2019-04-14 19:00:00 17.7 17 Noroeste 31 Noroeste 0 -- -- 47
2019-04-14 18:00:00 18.6 14 Noroeste 32 Noroeste 0 -- -- 44
2019-04-14 17:00:00 18.2 18 Noroeste 31 Noroeste 0 -- -- 45
2019-04-14 16:00:00 17.6 18 Noroeste 40 Oeste 0 -- -- 46
2019-04-14 15:00:00 16.5 22 Noroeste 36 Oeste 0 -- -- 50
2019-04-14 14:00:00 15.4 26 Noroeste 39 Oeste 0 -- -- 52
2019-04-14 13:00:00 14.1 22 Oeste 39 Oeste 0 -- -- 55
2019-04-14 12:00:00 12.1 27 Oeste 37 Noroeste 0 -- -- 63
2019-04-14 11:00:00 11.3 27 Noroeste 45 Noroeste 0 -- -- 64
2019-04-14 10:00:00 10.5 26 Noroeste 45 Noroeste 0 -- -- 59
2019-04-14 09:00:00 9.2 31 Noroeste 42 Noroeste 0 -- -- 50
2019-04-14 08:00:00 5.5 9 Nordeste 22 Nordeste 0 -- -- 52
2019-04-14 07:00:00 4.3 6 Este 14 Este 0 -- -- 52
2019-04-14 06:00:00 2.3 9 Este 13 Este 0 -- -- 59
2019-04-14 05:00:00 1.8 4 Este 10 Sudeste 0 -- -- 58
2019-04-14 04:00:00 2.2 5 Este 11 Este 0 -- -- 54
2019-04-14 03:00:00 1.7 5 Este 15 Este 0 -- -- 50
2019-04-14 02:00:00 0.7 5 Este 13 Este 0 -- -- 61
2019-04-14 01:00:00 1.5 6 Sudeste 13 Este 0 -- -- 51
2019-04-14 00:00:00 2.3 10 Este 12 Este 0 -- -- 53
2019-04-13 23:00:00 4.7 4 Sudeste 10 Este 0 -- -- 43
2019-04-13 22:00:00 6.8 6 Este 12 Nordeste 0 -- -- 41
2019-04-13 21:00:00 10.2 8 Norte 20 Noroeste 0 -- -- 32
2019-04-13 20:00:00 14 11 Noroeste 21 Oeste 0 -- -- 16
2019-04-13 19:00:00 14.6 15 Noroeste 23 Noroeste 0 -- -- 15
2019-04-13 18:00:00 15 13 Noroeste 24 Oeste 0 -- -- 15
2019-04-13 17:00:00 14.9 12 Noroeste 24 Oeste 0 -- -- 20
2019-04-13 16:00:00 14.3 10 Noroeste 26 Noroeste 0 -- -- 20
2019-04-13 15:00:00 13.7 9 Norte 24 Noroeste 0 -- -- 23
2019-04-13 14:00:00 13 7 Norte 23 Nordeste 0 -- -- 24
2019-04-13 13:00:00 11.8 13 Norte 21 Nordeste 0 -- -- 25
2019-04-13 12:00:00 10 9 Norte 15 Norte 0 -- -- 36
2019-04-13 11:00:00 7.7 10 Norte 18 Nordeste 0 -- -- 45
2019-04-13 10:00:00 5.1 9 Norte 13 Norte 0 -- -- 56
2019-04-13 09:00:00 1 4 Nordeste 5 Nordeste 0 -- -- 84
2019-04-13 08:00:00 -2.8 0 Calma 13 Este 0 -- -- 91
2019-04-13 07:00:00 -2.6 7 Este 10 Este 0 -- -- 94
2019-04-13 06:00:00 -2.5 4 Este 6 Nordeste 0 -- -- 93
2019-04-13 05:00:00 -1.8 3 Este 8 Este 0 -- -- 90
2019-04-13 04:00:00 -1.3 4 Este 8 Este 0 -- -- 92
2019-04-13 03:00:00 -1.2 9 Este 11 Este 0 -- -- 90
2019-04-13 02:00:00 0.4 6 Este 8 Este 0 -- -- 84
2019-04-13 01:00:00 1.6 3 Nordeste 6 Norte 0 -- -- 80
2019-04-13 00:00:00 2.5 4 Nordeste 7 Norte 0 -- -- 77
2019-04-12 23:00:00 3.3 3 Noroeste 10 Nordeste 0 -- -- 71
2019-04-12 22:00:00 5.2 6 Norte 22 Noroeste 0 -- -- 63
2019-04-12 21:00:00 7.5 12 Noroeste 23 Noroeste 0 -- -- 51
2019-04-12 20:00:00 9.9 11 Noroeste 26 Noroeste 0 -- -- 45
2019-04-12 19:00:00 10.7 12 Norte 24 Oeste 0 -- -- 44
2019-04-12 18:00:00 10.9 15 Noroeste 30 Oeste 0 -- -- 42
2019-04-12 17:00:00 10.9 13 Noroeste 28 Noroeste 0 -- -- 45
2019-04-12 16:00:00 10.3 14 Noroeste 24 Noroeste 0 -- -- 47
2019-04-12 15:00:00 9 12 Noroeste 25 Noroeste 0 -- -- 57
2019-04-12 14:00:00 7.1 11 Noroeste 27 Norte 0 -- -- 66
2019-04-12 13:00:00 5.1 13 Norte 22 Norte 0 -- -- 73
2019-04-12 12:00:00 3.7 13 Norte 27 Norte 0 -- -- 80
2019-04-12 11:00:00 2.6 15 Norte 24 Noroeste 0 -- -- 83
2019-04-12 10:00:00 1.9 16 Norte 24 Norte 0 -- -- 86
2019-04-12 09:00:00 1.4 15 Norte 27 Norte 0 -- -- 88
2019-04-12 08:00:00 1 17 Norte 24 Norte 0 -- -- 89
2019-04-12 07:00:00 1 14 Norte 23 Norte 0 -- -- 89
2019-04-12 06:00:00 1.1 13 Norte 26 Norte 0 -- -- 89
2019-04-12 05:00:00 1.1 14 Norte 28 Norte 0 -- -- 90
2019-04-12 04:00:00 1.2 18 Norte 32 Norte 0 -- -- 89
2019-04-12 03:00:00 1.2 18 Norte 31 Noroeste 0 -- -- 89
2019-04-12 02:00:00 1 11 Norte 21 Norte 0 -- -- 89
2019-04-12 01:00:00 1.5 13 Norte 33 Noroeste 0 -- -- 87
2019-04-12 00:00:00 1.5 12 Norte 28 Norte 0 -- -- 87
2019-04-11 23:00:00 2.1 22 Norte 32 Noroeste 0 -- -- 86
2019-04-11 22:00:00 2.6 13 Norte 27 Norte 0 -- -- 82
2019-04-11 21:00:00 4.6 19 Norte 38 Norte 0 -- -- 75
2019-04-11 20:00:00 6.1 23 Noroeste 40 Noroeste 0 -- -- 66
2019-04-11 19:00:00 7.4 23 Noroeste 42 Norte 0 -- -- 59
2019-04-11 18:00:00 8.5 26 Norte 44 Noroeste 0 -- -- 48
2019-04-11 17:00:00 7.1 31 Norte 46 Noroeste 0 -- -- 55
2019-04-11 16:00:00 7.2 29 Norte 46 Noroeste 0 -- -- 56
2019-04-11 15:00:00 7.6 27 Noroeste 47 Noroeste 0 -- -- 57
2019-04-11 14:00:00 6.9 31 Noroeste 47 Noroeste 0 -- -- 59
2019-04-11 13:00:00 6.1 26 Noroeste 44 Noroeste 0 -- -- 61
2019-04-11 12:00:00 4.5 27 Noroeste -- -- -- -- -- 72
2019-04-11 11:00:00 -- 24 Norte 38 Noroeste 0 -- -- --
2019-04-11 10:00:00 2 17 Norte 36 Norte 0 -- -- 85
2019-04-11 09:00:00 1.6 23 Norte 35 Norte 0 -- -- 84
2019-04-11 08:00:00 1.2 18 Norte 32 Noroeste 0 -- -- 89
2019-04-11 07:00:00 1.2 16 Norte 29 Norte 0 -- -- 88
2019-04-11 06:00:00 1.5 17 Norte 35 Noroeste 0 -- -- 88
2019-04-11 05:00:00 1.7 22 Norte 33 Noroeste 0 -- -- 87
2019-04-11 04:00:00 1.8 19 Norte 34 Norte 0 -- -- 88
2019-04-11 03:00:00 1.9 16 Noroeste 25 Noroeste 0 -- -- 88
2019-04-11 02:00:00 2.2 14 Norte 32 Norte 0 -- -- 86
2019-04-11 01:00:00 2.5 21 Noroeste 28 Noroeste 0 -- -- 85
2019-04-11 00:00:00 2.8 19 Noroeste 31 Noroeste 0 -- -- 85
2019-04-10 23:00:00 3.3 21 Norte 32 Norte 0 -- -- 86
2019-04-10 22:00:00 2.4 5 Nordeste 31 Noroeste 0 -- -- 93
2019-04-10 21:00:00 3.7 17 Noroeste 30 Noroeste 0 -- -- 88
2019-04-10 20:00:00 2.3 6 Noroeste 26 Norte 1.4 -- -- 95
2019-04-10 19:00:00 3.2 21 Norte 35 Nordeste 0 -- -- 87
2019-04-10 18:00:00 5.2 15 Norte 32 Oeste 0 -- -- 79
2019-04-10 17:00:00 5.4 17 Norte 34 Noroeste 0 -- -- 72
2019-04-10 16:00:00 7 22 Noroeste 36 Noroeste 0 -- -- 57
2019-04-10 15:00:00 6.6 21 Noroeste 36 Oeste 0 -- -- 62
2019-04-10 14:00:00 5.8 23 Noroeste 42 Noroeste 0 -- -- 66
2019-04-10 13:00:00 5.3 23 Noroeste 47 Noroeste 0 -- -- 73
2019-04-10 12:00:00 3.6 30 Noroeste 44 Oeste 0 -- -- 83
2019-04-10 11:00:00 3.6 32 Noroeste 48 Oeste 0 -- -- 83
2019-04-10 10:00:00 1.8 32 Noroeste 51 Noroeste 0 -- -- 92
2019-04-10 09:00:00 1.5 31 Noroeste 45 Noroeste 0 -- -- 93
2019-04-10 08:00:00 1.1 23 Noroeste 42 Noroeste 0 -- -- 96
2019-04-10 07:00:00 1.3 28 Noroeste 39 Oeste 0 -- -- 94
2019-04-10 06:00:00 1.6 19 Noroeste 39 Noroeste 0 -- -- 91
2019-04-10 05:00:00 1.9 18 Noroeste 40 Noroeste 0 -- -- 90
2019-04-10 04:00:00 1.4 22 Noroeste 38 Oeste 0 -- -- 96
2019-04-10 03:00:00 2 29 Noroeste 46 Noroeste 0 -- -- 90
2019-04-10 02:00:00 2.3 20 Noroeste 35 Noroeste 0.2 -- -- 86
2019-04-10 01:00:00 2.4 22 Noroeste 41 Oeste 0 -- -- 87
2019-04-10 00:00:00 2.4 19 Oeste 35 Oeste 0 -- -- 87
2019-04-09 23:00:00 1.7 18 Noroeste 39 Oeste 0.2 -- -- 94
2019-04-09 22:00:00 1.6 22 Noroeste 36 Oeste 0.4 -- -- 95
2019-04-09 21:00:00 1.5 21 Noroeste 33 Noroeste 0.6 -- -- 95
2019-04-09 20:00:00 1.7 16 Noroeste 24 Noroeste 1 -- -- 91
2019-04-09 19:00:00 3.5 3 Oeste 18 Oeste 1 -- -- 91
2019-04-09 18:00:00 3.9 6 Oeste 16 Oeste 0.8 -- -- 85
2019-04-09 17:00:00 5 5 Norte 45 Oeste 0 -- -- 77
2019-04-09 16:00:00 6.4 18 Sudoeste 34 Oeste 0 -- -- 67
2019-04-09 15:00:00 6.3 19 Oeste 37 Oeste 0 -- -- 63
2019-04-09 14:00:00 7.2 24 Oeste 35 Oeste 0 -- -- 58
2019-04-09 13:00:00 6.9 25 Oeste 37 Oeste 0 -- -- 60
2019-04-09 12:00:00 5.7 21 Oeste 33 Oeste 0 -- -- 68
2019-04-09 11:00:00 5 14 Noroeste 25 Oeste 0 -- -- 71
2019-04-09 10:00:00 4.5 6 Norte 21 Oeste 0 -- -- 79
2019-04-09 09:00:00 2.5 6 Noroeste 18 Norte 0 -- -- 91
2019-04-09 08:00:00 1.9 8 Norte 15 Nordeste 0 -- -- 92
2019-04-09 07:00:00 1.6 8 Norte 19 Nordeste 0 -- -- 92
2019-04-09 06:00:00 1.1 8 Norte 21 Noroeste 0 -- -- 97
2019-04-09 05:00:00 1.3 10 Norte 23 Norte 0.4 -- -- 96
2019-04-09 04:00:00 1.7 9 Noroeste 25 Noroeste 0 -- -- 93
2019-04-09 03:00:00 1.3 6 Nordeste 9 Nordeste 0 -- -- 95
2019-04-09 02:00:00 2.7 2 Nordeste 16 Noroeste 0 -- -- 91
2019-04-09 01:00:00 2.9 5 Norte 12 Noroeste 0 -- -- 88
2019-04-09 00:00:00 3.2 6 Este 14 Este 0 -- -- 84
2019-04-08 23:00:00 4.4 4 Sur 12 Sudoeste 0 -- -- 76
2019-04-08 22:00:00 5.6 4 Sudoeste 18 Sudoeste 0 -- -- 69
2019-04-08 21:00:00 7.5 11 Oeste 26 Sudoeste 0 -- -- 61
2019-04-08 20:00:00 9.3 14 Oeste 32 Sudoeste 0 -- -- 55
2019-04-08 19:00:00 9.6 23 Oeste 42 Oeste 0 -- -- 57
2019-04-08 18:00:00 10.1 13 Sudoeste 34 Sudoeste 0 -- -- 67
2019-04-08 17:00:00 11.4 24 Oeste 37 Oeste 0 -- -- 65
2019-04-08 16:00:00 10.4 22 Oeste 36 Oeste 0 -- -- 66
2019-04-08 15:00:00 10.4 20 Sudoeste 42 Sudoeste 0 -- -- 67
2019-04-08 14:00:00 9.3 17 Oeste 25 Oeste 0 -- -- 69
2019-04-08 13:00:00 8.2 16 Sudoeste 25 Sudoeste 0 -- -- 74
2019-04-08 12:00:00 7.5 14 Oeste 23 Oeste 0 -- -- 81
2019-04-08 11:00:00 7.1 10 Oeste 22 Oeste 0 -- -- 80
2019-04-08 10:00:00 7.4 10 Oeste 18 Oeste 0 -- -- 79
2019-04-08 09:00:00 5.8 3 Oeste 18 Sudoeste 0 -- -- 86
2019-04-08 08:00:00 3.8 5 Sudoeste 17 Sur 0 -- -- 95
2019-04-08 07:00:00 3.1 4 Este 10 Sudeste 0 -- -- 98
2019-04-08 06:00:00 2.6 7 Sudeste 10 Sudeste 0 -- -- 97
2019-04-08 05:00:00 2.1 6 Sudeste 11 Sudeste 0 -- -- 95
2019-04-08 04:00:00 1.4 7 Sudeste 10 Sudeste 0.2 -- -- 98
2019-04-08 03:00:00 1.2 7 Sudeste 12 Sur 1.2 -- -- 96
2019-04-08 02:00:00 1.7 11 Sur 18 Sudoeste 0.4 -- -- 92
2019-04-08 01:00:00 3.4 11 Sudoeste 18 Sudoeste 0 -- -- 75
2019-04-08 00:00:00 3.9 9 Sudoeste 18 Sudoeste 0 -- -- 68
2019-04-07 23:00:00 4.2 12 Sudoeste 19 Sudoeste 0 -- -- 64
2019-04-07 22:00:00 4.5 13 Sudoeste 22 Oeste 0 -- -- 62
2019-04-07 21:00:00 4.7 13 Oeste 23 Oeste 0 -- -- 60
2019-04-07 20:00:00 5.1 15 Oeste 27 Oeste 0 -- -- 58
2019-04-07 19:00:00 5.9 19 Oeste 32 Oeste 0.2 -- -- 55
2019-04-07 18:00:00 7.5 19 Oeste 39 Oeste 0 -- -- 53
2019-04-07 17:00:00 6 18 Noroeste 39 Oeste 0 -- -- 59
2019-04-07 16:00:00 4.1 17 Noroeste 39 Oeste 0 -- -- 62
2019-04-07 15:00:00 3.4 22 Noroeste 38 Noroeste 0 -- -- 66
2019-04-07 14:00:00 2.4 22 Noroeste 40 Noroeste 0 -- -- 74
2019-04-07 13:00:00 2.2 26 Noroeste 45 Noroeste 0 -- -- 79
2019-04-07 12:00:00 1 30 Noroeste 46 Noroeste 0.4 -- -- 82
2019-04-07 11:00:00 0.7 28 Noroeste 50 Noroeste 0.6 -- -- 86
2019-04-07 10:00:00 0.1 29 Noroeste 49 Oeste 0.6 -- -- 89
2019-04-07 09:00:00 -0.2 23 Noroeste 38 Oeste 0 -- -- 94
2019-04-07 08:00:00 -0.5 19 Noroeste 37 Noroeste 0 -- -- 93
2019-04-07 07:00:00 -0.5 18 Noroeste 38 Noroeste 0 -- -- 89
2019-04-07 06:00:00 -0.7 10 Noroeste 25 Oeste 0 -- -- 89
2019-04-07 05:00:00 -0.4 14 Oeste 28 Oeste 0 -- -- 90
2019-04-07 04:00:00 -0.1 16 Oeste 28 Oeste 0 -- -- 93
2019-04-07 03:00:00 -0.2 15 Oeste 24 Oeste 0 -- -- 94
2019-04-07 02:00:00 -0.3 14 Oeste 22 Oeste 0 -- -- 97
2019-04-07 01:00:00 -0.4 6 Oeste 11 Sudoeste 0 -- -- 95
2019-04-07 00:00:00 -0.4 7 Sudoeste 17 Sudoeste 0 -- -- 95
2019-04-06 23:00:00 -0.2 15 Sudoeste 33 Oeste 0 -- -- 95
2019-04-06 22:00:00 -0.2 12 Oeste 18 Oeste 0 -- -- 97
2019-04-06 21:00:00 0.5 5 Norte 25 Noroeste 0 -- -- 93
2019-04-06 20:00:00 1.8 18 Noroeste 31 Noroeste 0 -- -- 85
2019-04-06 19:00:00 4.3 19 Oeste 35 Sudoeste 0 -- -- 70
2019-04-06 18:00:00 3 12 Sudoeste 22 Sudoeste 0 -- -- 81
2019-04-06 17:00:00 2.4 12 Oeste 54 Sudoeste 0.4 -- -- 84
2019-04-06 16:00:00 2.5 33 Sudoeste 53 Sudoeste 0 -- -- 82
2019-04-06 15:00:00 4.1 13 Sudoeste 39 Oeste 0 -- -- 64
2019-04-06 14:00:00 4 23 Oeste 42 Oeste 0 -- -- 64
2019-04-06 13:00:00 2.7 33 Oeste 48 Oeste 0 -- -- 69
2019-04-06 12:00:00 2 23 Oeste 47 Oeste 0 -- -- 78
2019-04-06 11:00:00 0.6 24 Oeste 37 Oeste 0 -- -- 79
2019-04-06 10:00:00 0.2 14 Sudoeste 27 Oeste 0.2 -- -- 84
2019-04-06 09:00:00 -0.5 5 Sudeste 18 Sudoeste 0 -- -- 87
2019-04-06 08:00:00 -1.1 11 Oeste 23 Sudoeste 0 -- -- 88
2019-04-06 07:00:00 -2 7 Este 41 Oeste 0 -- -- 87
2019-04-06 06:00:00 -1 26 Oeste 44 Oeste 0 -- -- 84
2019-04-06 05:00:00 -0.8 32 Oeste 45 Oeste 0 -- -- 82
2019-04-06 04:00:00 -0.9 21 Oeste 36 Oeste 0 -- -- 85
2019-04-06 03:00:00 -0.8 14 Oeste 33 Oeste 0 -- -- 87
2019-04-06 02:00:00 -0.8 27 Oeste 45 Oeste 0 -- -- 93
2019-04-06 01:00:00 -0.3 22 Oeste 36 Sudoeste 0 -- -- 91
2019-04-06 00:00:00 -0.1 22 Sudoeste 35 Oeste 0 -- -- 88
2019-04-05 23:00:00 0.6 20 Sudoeste 33 Sudoeste 0 -- -- 86
2019-04-05 22:00:00 0.9 25 Sudoeste 36 Sudoeste 0 -- -- 91
2019-04-05 21:00:00 1.6 21 Sudoeste 35 Sur 0 -- -- 91
2019-04-05 20:00:00 1.9 9 Sur 22 Este 0.8 -- -- 95
2019-04-05 19:00:00 2.2 14 Sur 35 Sur 0.4 -- -- 93
2019-04-05 18:00:00 2.7 11 Sur 24 Sur 0 -- -- 87
2019-04-05 17:00:00 2.3 13 Sur 33 Sudoeste 0.2 -- -- 89
2019-04-05 16:00:00 2.5 28 Sudoeste 43 Sudoeste 0.4 -- -- 90
2019-04-05 15:00:00 5.4 16 Sur 32 Sudoeste 0 -- -- 78
2019-04-05 14:00:00 5.9 16 Sur 28 Sudoeste 0 -- -- 66
2019-04-05 13:00:00 6.4 14 Sur 39 Sudoeste 0 -- -- 66
2019-04-05 12:00:00 4.5 28 Sudoeste 42 Sudoeste 0 -- -- 70
2019-04-05 11:00:00 4.3 18 Sur 39 Sur 0 -- -- 70
2019-04-05 10:00:00 3.5 19 Sudoeste 33 Sudoeste 0 -- -- 72
2019-04-05 09:00:00 2.9 17 Sur 25 Sur 0 -- -- 81
2019-04-05 08:00:00 1.5 13 Sur 19 Sur 0 -- -- 88
2019-04-05 07:00:00 1.1 13 Sur 18 Sur 0 -- -- 94
2019-04-05 06:00:00 1.3 11 Sur 21 Sur 0 -- -- 92
2019-04-05 05:00:00 1.1 15 Sur 22 Sur 0 -- -- 87
2019-04-05 04:00:00 0.9 15 Sur 20 Sur 0 -- -- 84
2019-04-05 03:00:00 0.8 6 Sudoeste 24 Sur 0 -- -- 87
2019-04-05 02:00:00 0.8 16 Sudeste 34 Sur 0 -- -- 89
2019-04-05 01:00:00 1.1 20 Sur 31 Sudeste 0 -- -- 92
2019-04-05 00:00:00 1.5 22 Sudeste 31 Sudeste 0 -- -- 90
2019-04-04 23:00:00 1.8 16 Sur 31 Sudeste 0 -- -- 89
2019-04-04 22:00:00 2.4 20 Sudeste 31 Sur 0 -- -- 82
2019-04-04 21:00:00 4 16 Sur 30 Sudeste 0 -- -- 66
2019-04-04 20:00:00 8.1 15 Sudoeste 35 Sudoeste 0 -- -- 29
2019-04-04 19:00:00 9.3 18 Sur 43 Sudoeste 0 -- -- 30
2019-04-04 18:00:00 9.5 16 Sudoeste 28 Sur 0 -- -- 29
2019-04-04 17:00:00 7.8 15 Sudoeste 27 Sudoeste 0 -- -- 32
2019-04-04 16:00:00 7.4 9 Sudoeste 24 Oeste 0 -- -- 33
2019-04-04 15:00:00 6.2 15 Noroeste 29 Noroeste 0 -- -- 34
2019-04-04 14:00:00 4.9 9 Oeste 29 Noroeste 0 -- -- 44
2019-04-04 13:00:00 3.4 20 Noroeste 33 Noroeste 0 -- -- 49
2019-04-04 12:00:00 1.9 14 Noroeste 28 Noroeste 0 -- -- 56
2019-04-04 11:00:00 0.6 14 Norte 26 Noroeste 0 -- -- 65
2019-04-04 10:00:00 -0.6 18 Norte 30 Norte 0 -- -- 67
2019-04-04 09:00:00 -2 17 Noroeste 35 Oeste 0 -- -- 72
2019-04-04 08:00:00 -2.7 24 Oeste 38 Noroeste 0 -- -- 79
2019-04-04 07:00:00 -2.6 16 Oeste 30 Oeste 0 -- -- 86
2019-04-04 06:00:00 -2.4 15 Noroeste 26 Noroeste 0 -- -- 88
2019-04-04 05:00:00 -2.2 13 Noroeste 35 Noroeste 0 -- -- 89
2019-04-04 04:00:00 -1.9 19 Noroeste 34 Noroeste 0 -- -- 88
2019-04-04 03:00:00 -1.6 12 Noroeste 21 Noroeste 0 -- -- 84
2019-04-04 02:00:00 -1 10 Noroeste 24 Noroeste 0 -- -- 83
2019-04-04 01:00:00 -1.4 8 Norte 22 Norte 0 -- -- 93
2019-04-04 00:00:00 -1.1 18 Norte 32 Norte 0 -- -- 93
2019-04-03 23:00:00 -0.8 22 Norte 36 Norte 0 -- -- 99
2019-04-03 22:00:00 0.8 24 Norte 37 Norte 0 -- -- 96
2019-04-03 21:00:00 3.2 12 Noroeste 24 Noroeste 0 -- -- 65
2019-04-03 20:00:00 2.8 8 Nordeste 19 Norte 0 -- -- 79
2019-04-03 19:00:00 3.4 17 Noroeste 29 Norte 0 -- -- 76
2019-04-03 18:00:00 4.9 17 Norte 29 Nordeste 0 -- -- 78
2019-04-03 17:00:00 7.9 16 Noroeste 30 Noroeste 0 -- -- 74
2019-04-03 16:00:00 9.4 21 Oeste 39 Sudoeste 0 -- -- 59
2019-04-03 15:00:00 9.4 24 Sudoeste 37 Sudoeste 0 -- -- 54
2019-04-03 14:00:00 8.9 22 Sudoeste 39 Sudoeste 0 -- -- 63
2019-04-03 13:00:00 8.8 17 Sudoeste 31 Sudoeste 0 -- -- 66
2019-04-03 12:00:00 8.6 22 Sudoeste 33 Sudoeste 0 -- -- 65
2019-04-03 11:00:00 7.6 14 Sudoeste 24 Sudoeste 0 -- -- 71
2019-04-03 10:00:00 5.3 8 Sur 14 Sur 0 -- -- 88
2019-04-03 09:00:00 3.8 5 Sudoeste 8 Sudoeste 0 -- -- 97
2019-04-03 08:00:00 2.3 4 Sudoeste 8 Sur 0 -- -- 95
2019-04-03 07:00:00 3.1 5 Sudoeste 8 Sur 0 -- -- 95
2019-04-03 06:00:00 2.3 4 Sudoeste 12 Este 0 -- -- 94
2019-04-03 05:00:00 3.2 4 Oeste 15 Sudoeste 0 -- -- 89
2019-04-03 04:00:00 3.3 6 Sudeste 10 Sudeste 0 -- -- 89
2019-04-03 03:00:00 3.4 3 Sur 13 Sudeste 0 -- -- 91
2019-04-03 02:00:00 2.3 8 Este 17 Sudeste 0 -- -- 95
2019-04-03 01:00:00 2.4 8 Sudeste 12 Este 0 -- -- 94
2019-04-03 00:00:00 2.8 5 Este 11 Este 0 -- -- 94
2019-04-02 23:00:00 3.5 3 Sur 14 Sudeste 0 -- -- 93
2019-04-02 22:00:00 4.5 10 Este 13 Sudeste 0 -- -- 91
2019-04-02 21:00:00 5.6 9 Nordeste 39 Oeste 0 -- -- 88
2019-04-02 20:00:00 6.9 25 Oeste 48 Oeste 0 -- -- 83
2019-04-02 19:00:00 9.6 20 Sudoeste 24 Sudoeste 0 -- -- 62
2019-04-02 18:00:00 11.3 8 Sudoeste 20 Sudoeste 0 -- -- 58
2019-04-02 17:00:00 8.5 21 Sudoeste 44 Oeste 0 -- -- 72
2019-04-02 16:00:00 11.4 16 Oeste 27 Noroeste 0 -- -- 46
2019-04-02 15:00:00 11.7 12 Norte 23 Norte 0 -- -- 53
2019-04-02 14:00:00 11.5 11 Noroeste 22 Noroeste 0 -- -- 52
2019-04-02 13:00:00 9.9 9 Nordeste 18 Norte 0 -- -- 68
2019-04-02 12:00:00 8.3 10 Noroeste 17 Noroeste 0 -- -- 71
2019-04-02 11:00:00 8.8 10 Norte 17 Norte 0 -- -- 73
2019-04-02 10:00:00 6.3 7 Norte 14 Nordeste 0 -- -- 89
2019-04-02 09:00:00 5.3 6 Noroeste 20 Noroeste 0 -- -- 91
2019-04-02 08:00:00 4.4 6 Noroeste 10 Noroeste 0 -- -- 97
2019-04-02 07:00:00 3.2 3 Este 13 Este 0 -- -- 98
2019-04-02 06:00:00 4 4 Sudeste 21 Oeste 0.2 -- -- 95
2019-04-02 05:00:00 5 4 Noroeste 15 Sudoeste 0 -- -- 93
2019-04-02 04:00:00 5.1 8 Sudoeste 14 Sudoeste 0 -- -- 96
2019-04-02 03:00:00 5.3 8 Sudoeste 15 Oeste 0 -- -- 98
2019-04-02 02:00:00 5.5 9 Sudoeste 16 Sudoeste 0 -- -- 97
2019-04-02 01:00:00 5.3 7 Sur 11 Sur 0 -- -- 97
2019-04-02 00:00:00 5.3 5 Sur 9 Sur 0 -- -- 97
2019-04-01 23:00:00 5.4 4 Sudeste 16 Sur 0 -- -- 96
2019-04-01 22:00:00 5.4 12 Sur 18 Sur 0 -- -- 97
2019-04-01 21:00:00 5.5 7 Sur 17 Sur 0 -- -- 97
2019-04-01 20:00:00 5.9 13 Sur 19 Sur 0 -- -- 97
2019-04-01 19:00:00 6.2 13 Sur 24 Sur 0 -- -- 96
2019-04-01 18:00:00 7.5 15 Sur 26 Sur 0 -- -- 89
2019-04-01 17:00:00 9.1 15 Sur 27 Sur 0 -- -- 82
2019-04-01 16:00:00 8.6 18 Sur 26 Sur 0 -- -- 89
2019-04-01 15:00:00 8.3 15 Sudeste 23 Sur 0 -- -- 87
2019-04-01 14:00:00 7.2 13 Sur 20 Sur 0 -- -- 93
2019-04-01 13:00:00 6.4 12 Sur 20 Sudeste 0.2 -- -- 96
2019-04-01 12:00:00 6.5 11 Sudeste 19 Sudeste 0 -- -- 94
2019-04-01 11:00:00 5.7 6 Sur 10 Sudeste 0 -- -- 96
2019-04-01 10:00:00 5 3 Sudoeste 4 Sur 0.2 -- -- 98
2019-04-01 09:00:00 4.5 0 Calma 3 Nordeste 0.2 -- -- 98
2019-04-01 08:00:00 4.2 0 Calma 4 Norte 0.4 -- -- 98
2019-04-01 07:00:00 4.1 3 Nordeste 4 Norte 0.2 -- -- 99
2019-04-01 06:00:00 4.1 0 Calma 6 Norte 0.2 -- -- 99
2019-04-01 05:00:00 4.1 3 Norte 5 Nordeste 0 -- -- 98
2019-04-01 04:00:00 4.1 4 Nordeste 5 Norte 0 -- -- 98
2019-04-01 03:00:00 4.1 0 Calma 6 Sur 0.2 -- -- 98
2019-04-01 02:00:00 4.2 4 Sudoeste 7 Este 0.2 -- -- 96
2019-04-01 01:00:00 4.3 6 Este 21 Este 0 -- -- 95
2019-04-01 00:00:00 4.1 7 Nordeste 10 Nordeste 0 -- -- 95
2019-03-31 23:00:00 4.2 0 Calma 5 Nordeste 0 -- -- 95
2019-03-31 22:00:00 4.1 0 Calma 5 Este 0.6 -- -- 95
2019-03-31 21:00:00 4.1 4 Nordeste 7 Norte 1 -- -- 94
2019-03-31 20:00:00 4.3 3 Norte 13 Nordeste 1 -- -- 93
2019-03-31 19:00:00 4.5 7 Nordeste 17 Este 2.2 -- -- 93
2019-03-31 18:00:00 4.9 5 Norte 12 Norte 1.6 -- -- 97
2019-03-31 17:00:00 4.6 8 Norte 13 Norte 2 -- -- 95
2019-03-31 16:00:00 4.6 8 Nordeste 10 Nordeste 1.2 -- -- 92
2019-03-31 15:00:00 4.6 6 Este 13 Este 2 -- -- 91
2019-03-31 14:00:00 4.7 8 Sudeste 13 Sudeste 1.6 -- -- 93
2019-03-31 13:00:00 4.9 5 Sudeste 17 Este 1.2 -- -- 90
2019-03-31 12:00:00 4.3 3 Sudoeste 8 Oeste 0.4 -- -- 96
2019-03-31 11:00:00 3.3 4 Sudoeste 6 Sudoeste 0.2 -- -- 97
2019-03-31 10:00:00 2.7 0 Calma 13 Sur 0.4 -- -- 99
2019-03-31 09:00:00 2.1 11 Sur 24 Sur 0 -- -- 99
2019-03-31 08:00:00 2.1 20 Sur 27 Sur 0 -- -- 92
2019-03-31 07:00:00 1.4 3 Sudoeste 11 Sudoeste 0 -- -- 90
2019-03-31 06:00:00 0.8 3 Sudeste 8 Nordeste 0 -- -- 88
2019-03-31 05:00:00 0.8 0 Calma 6 Este 0 -- -- 92
2019-03-31 03:00:00 1.2 4 Nordeste 8 Nordeste 0 -- -- 97
2019-03-31 01:00:00 1.7 0 Calma 5 Nordeste 0 -- -- 92
2019-03-31 00:00:00 2.7 3 Norte 16 Sur 0 -- -- 93
2019-03-30 23:00:00 3.7 7 Sur 24 Sur 0 -- -- 93
2019-03-30 22:00:00 3.9 13 Sudeste 29 Sur 0 -- -- 91
2019-03-30 21:00:00 4.5 22 Sur 29 Sudeste 0 -- -- 89
2019-03-30 20:00:00 5.3 18 Sudeste 32 Sur 0 -- -- 84
2019-03-30 19:00:00 7.4 23 Sur 35 Sur 0 -- -- 70
2019-03-30 18:00:00 10.5 21 Sur 33 Sur 0 -- -- 55
2019-03-30 17:00:00 12 19 Sudeste 32 Sudeste 0 -- -- 41
2019-03-30 16:00:00 12.9 15 Sur 28 Sur 0 -- -- 33
2019-03-30 15:00:00 13 10 Sur 26 Sudeste 0 -- -- 31
2019-03-30 14:00:00 12.3 10 Sudoeste 20 Sur 0 -- -- 29
2019-03-30 13:00:00 9.3 12 Sur 27 Sur 0 -- -- 31
2019-03-30 12:00:00 9.9 17 Sur 26 Sur 0 -- -- 38
2019-03-30 11:00:00 8.6 13 Sur 25 Sur 0 -- -- 35
2019-03-30 10:00:00 6.4 12 Sur 21 Sudoeste 0 -- -- 45
2019-03-30 09:00:00 2.2 2 Noroeste 4 Oeste 0 -- -- 66
2019-03-30 08:00:00 -1.4 0 Calma 4 Este 0 -- -- 75
2019-03-30 07:00:00 -3.4 3 Este 5 Este 0 -- -- 83
2019-03-30 06:00:00 -3.4 2 Nordeste 8 Este 0 -- -- 84
2019-03-30 05:00:00 -2.5 3 Este 8 Este 0 -- -- 86
2019-03-30 04:00:00 -1.1 3 Sudeste 8 Sur 0 -- -- 84
2019-03-30 03:00:00 -1.3 0 Calma 16 Sur 0 -- -- 97
2019-03-30 02:00:00 -0.1 13 Sur 19 Sur 0 -- -- 99
2019-03-30 01:00:00 0.8 10 Sur 23 Sur 0 -- -- 96
2019-03-30 00:00:00 1.3 14 Sudeste 22 Sudeste 0 -- -- 96
2019-03-29 23:00:00 1.6 13 Sur 22 Sur 0 -- -- 95
2019-03-29 22:00:00 2.2 11 Sur 31 Sudeste 0 -- -- 88
2019-03-29 21:00:00 3.1 19 Sudeste 28 Sudeste 0 -- -- 81
2019-03-29 20:00:00 4.4 17 Sudeste 24 Sudeste 0 -- -- 70
2019-03-29 19:00:00 6.3 14 Sudeste 33 Sudeste 0 -- -- 61
2019-03-29 18:00:00 8.3 21 Sudeste 35 Sudeste 0 -- -- 52
2019-03-29 17:00:00 9.1 24 Sudeste 38 Sudeste 0 -- -- 46
2019-03-29 16:00:00 10 24 Sudeste 36 Sudeste 0 -- -- 43
2019-03-29 15:00:00 10.5 23 Sudeste 34 Sudeste 0 -- -- 40
2019-03-29 14:00:00 10.8 23 Sur 37 Sudeste 0 -- -- 36
2019-03-29 13:00:00 9.9 23 Sudeste 41 Sudeste 0 -- -- 37
2019-03-29 12:00:00 9 25 Sudeste 36 Sur 0 -- -- 38
2019-03-29 11:00:00 8.3 21 Sudeste 41 Sudeste 0 -- -- 41
2019-03-29 10:00:00 7.1 24 Sudeste 38 Sudeste 0 -- -- 46
2019-03-29 09:00:00 5.7 17 Sudeste 29 Sudeste 0 -- -- 53
2019-03-29 08:00:00 -1.3 0 Calma 6 Sudeste 0 -- -- 66
2019-03-29 07:00:00 -4.3 0 Calma 6 Sudeste 0 -- -- 73
2019-03-29 06:00:00 -3.8 3 Norte 7 Este 0 -- -- 69
2019-03-29 05:00:00 -2 5 Este 8 Este 0 -- -- 60
2019-03-29 04:00:00 -1.5 4 Sudeste 7 Sur 0 -- -- 56
2019-03-29 03:00:00 -1.7 0 Calma 9 Sudeste 0 -- -- 68
2019-03-29 02:00:00 -0.5 4 Este 14 Este 0 -- -- 60
2019-03-29 01:00:00 0 2 Este 12 Este 0 -- -- 67
2019-03-29 00:00:00 1.2 0 Calma 8 Sur 0 -- -- 71
2019-03-28 23:00:00 2.4 7 Sur 21 Sur 0 -- -- 67
2019-03-28 22:00:00 3.1 15 Sur 24 Sudeste 0 -- -- 67
2019-03-28 21:00:00 4.1 17 Sur 30 Sudeste 0 -- -- 67
2019-03-28 20:00:00 5.4 19 Sur 32 Sur 0 -- -- 60
2019-03-28 19:00:00 8 22 Sur 32 Sur 0 -- -- 49
2019-03-28 18:00:00 11.1 22 Sur 31 Sur 0 -- -- 37
2019-03-28 17:00:00 12.8 21 Sur 30 Sur 0 -- -- 31
2019-03-28 16:00:00 13.6 12 Nordeste 25 Nordeste 0 -- -- 26
2019-03-28 15:00:00 13.7 11 Oeste 24 Oeste 0 -- -- 26
2019-03-28 14:00:00 13 12 Oeste 22 Norte 0 -- -- 27
2019-03-28 13:00:00 12.3 6 Noroeste 19 Noroeste 0 -- -- 26
2019-03-28 12:00:00 11 9 Noroeste 17 Sur 0 -- -- 28
2019-03-28 11:00:00 9.7 7 Sudeste 15 Sudeste 0 -- -- 29
2019-03-28 10:00:00 8 10 Sudeste 18 Sudeste 0 -- -- 29
2019-03-28 09:00:00 2.2 0 Calma 3 Noroeste 0 -- -- 63
2019-03-28 08:00:00 -1.6 4 Este 7 Este 0 -- -- 68
2019-03-28 07:00:00 -4.4 2 Nordeste 3 Nordeste 0 -- -- 74
2019-03-28 06:00:00 -4.4 4 Este 9 Este 0 -- -- 73
2019-03-28 05:00:00 -3.5 4 Este 5 Este 0 -- -- 70
2019-03-28 04:00:00 -3.2 3 Nordeste 4 Nordeste 0 -- -- 67
2019-03-28 03:00:00 -2.7 0 Calma 11 Este 0 -- -- 66
2019-03-28 02:00:00 -2 11 Este 14 Sudeste 0 -- -- 64
2019-03-28 01:00:00 -0.6 5 Este 8 Este 0 -- -- 62
2019-03-28 00:00:00 -1.6 3 Nordeste 12 Este 0 -- -- 70
2019-03-27 23:00:00 -1 5 Este 12 Este 0 -- -- 67
2019-03-27 22:00:00 1.2 6 Sudeste 10 Sudeste 0 -- -- 62
2019-03-27 21:00:00 3.6 6 Sur 20 Sur 0 -- -- 55
2019-03-27 20:00:00 5.6 14 Sur 27 Sur 0 -- -- 49
2019-03-27 19:00:00 9.5 12 Sur 24 Sudoeste 0 -- -- 39
2019-03-27 18:00:00 11.7 14 Nordeste 33 Nordeste 0 -- -- 21
2019-03-27 17:00:00 12.3 17 Nordeste 29 Nordeste 0 -- -- 19
2019-03-27 16:00:00 12.7 16 Norte 32 Norte 0 -- -- 18
2019-03-27 15:00:00 12.8 21 Norte 35 Norte 0 -- -- 18
2019-03-27 14:00:00 12.4 14 Norte 29 Norte 0 -- -- 16
2019-03-27 13:00:00 11.3 16 Norte 29 Norte 0 -- -- 22
2019-03-27 12:00:00 10.6 13 Noroeste 23 Norte 0 -- -- 22
2019-03-27 11:00:00 8.4 6 Norte 14 Norte 0 -- -- 29
2019-03-27 10:00:00 5.9 5 Sudoeste 8 Sudoeste 0 -- -- 42
2019-03-27 09:00:00 1.8 3 Nordeste 5 Nordeste 0 -- -- 65
2019-03-27 08:00:00 -2.9 2 Nordeste 4 Nordeste 0 -- -- 83
2019-03-27 07:00:00 -5.4 2 Este 6 Este 0 -- -- 94
2019-03-27 06:00:00 -3.7 2 Sudeste 10 Sudeste 0 -- -- 96
2019-03-27 05:00:00 -3.1 8 Sudeste 9 Sudeste 0 -- -- 89
2019-03-27 04:00:00 -3.3 0 Calma 6 Oeste 0 -- -- 92
2019-03-27 03:00:00 -2.9 2 Este 9 Este 0 -- -- 94
2019-03-27 02:00:00 -2.3 8 Este 10 Este 0 -- -- 93
2019-03-27 01:00:00 -1.5 3 Nordeste 11 Este 0 -- -- 87
2019-03-27 00:00:00 0.4 6 Sudeste 18 Sudeste 0 -- -- 84
2019-03-26 23:00:00 2.1 14 Sur 26 Sur 0 -- -- 89
2019-03-26 22:00:00 2.8 16 Sur 26 Sur 0 -- -- 71
2019-03-26 21:00:00 4.4 16 Sur 26 Sur 0 -- -- 65
2019-03-26 20:00:00 6.5 8 Sudeste 19 Nordeste 0 -- -- 23
2019-03-26 19:00:00 10.3 15 Nordeste 32 Nordeste 0 -- -- 17
2019-03-26 18:00:00 11.5 24 Nordeste 38 Nordeste 0 -- -- 14
2019-03-26 17:00:00 12.7 17 Nordeste 34 Nordeste 0 -- -- 13
2019-03-26 16:00:00 13.4 18 Norte 36 Nordeste 0 -- -- 10
2019-03-26 15:00:00 14.1 23 Nordeste 47 Nordeste 0 -- -- 16
2019-03-26 14:00:00 14.1 10 Sur 26 Sur 0 -- -- 28
2019-03-26 13:00:00 13.5 8 Sudeste 19 Sudoeste 0 -- -- 29
2019-03-26 12:00:00 11.3 10 Sudoeste 18 Oeste 0 -- -- 38
2019-03-26 11:00:00 8.7 6 Noroeste 17 Noroeste 0 -- -- 49
2019-03-26 10:00:00 5.6 11 Norte 19 Noroeste 0 -- -- 60
2019-03-26 09:00:00 3 15 Norte 24 Norte 0 -- -- 70
2019-03-26 08:00:00 -0.8 8 Norte 12 Norte 0 -- -- 85
2019-03-26 07:00:00 -3.8 5 Nordeste 12 Norte 0 -- -- 88
2019-03-26 06:00:00 -3.6 10 Norte 14 Norte 0 -- -- 88
2019-03-26 05:00:00 -3.2 5 Norte 9 Norte 0 -- -- 86
2019-03-26 04:00:00 -2.8 8 Nordeste 10 Nordeste 0 -- -- 85
2019-03-26 03:00:00 -1.9 8 Norte 12 Norte 0 -- -- 82
2019-03-26 02:00:00 -1.3 7 Norte 12 Norte 0 -- -- 79
2019-03-26 01:00:00 -- 7 Nordeste 9 Nordeste 0 -- -- --
2019-03-26 00:00:00 0.7 6 Norte 9 Norte 0 -- -- 70
2019-03-25 23:00:00 1.6 9 Norte 14 Nordeste 0 -- -- 67
2019-03-25 22:00:00 2.8 5 Nordeste 13 Norte 0 -- -- 60
2019-03-25 21:00:00 4.7 8 Noroeste 19 Norte 0 -- -- 55
2019-03-25 20:00:00 7 12 Norte 24 Norte 0 -- -- 50
2019-03-25 19:00:00 10.8 17 Norte 25 Norte 0 -- -- 41
2019-03-25 18:00:00 13.5 17 Norte 23 Norte 0 -- -- 37
2019-03-25 17:00:00 15.3 13 Noroeste 23 Noroeste 0 -- -- 26
2019-03-25 16:00:00 15.5 6 Noroeste 23 Oeste 0 -- -- 24
2019-03-25 15:00:00 15 12 Noroeste 28 Oeste 0 -- -- 26
2019-03-25 14:00:00 14.6 10 Noroeste 24 Oeste 0 -- -- 27
2019-03-25 13:00:00 14.1 13 Noroeste 24 Noroeste 0 -- -- 29
2019-03-25 12:00:00 13 10 Norte 22 Norte 0 -- -- 33
2019-03-25 11:00:00 11.3 12 Norte 18 Norte 0 -- -- 37
2019-03-25 10:00:00 9.7 10 Norte 18 Norte 0 -- -- 40
2019-03-25 09:00:00 6 3 Nordeste 6 Nordeste 0 -- -- 55
2019-03-25 08:00:00 0.8 4 Este 9 Este 0 -- -- 71
2019-03-25 07:00:00 -2.5 4 Nordeste 10 Este 0 -- -- 81
2019-03-25 06:00:00 -2.2 5 Este 6 Este 0 -- -- 81
2019-03-25 05:00:00 -2.1 4 Nordeste 9 Este 0 -- -- 76
2019-03-25 04:00:00 -0.6 3 Este 6 Este 0 -- -- 70
2019-03-25 03:00:00 -0.2 7 Este 10 Este 0 -- -- 70
2019-03-25 02:00:00 0.7 3 Nordeste 13 Este 0 -- -- 64
2019-03-25 01:00:00 0.5 7 Este 13 Norte 0 -- -- 66
2019-03-25 00:00:00 1.5 4 Este 12 Sudeste 0 -- -- 60